sensor_id;sensor_type;location;lat;lon;timestamp;temperature;humidity
35129;DHT22;21301;43.626;10.580;2022-11-18T00:01:05;15.00;99.90
35129;DHT22;21301;43.626;10.580;2022-11-18T00:03:31;15.10;99.90
35129;DHT22;21301;43.626;10.580;2022-11-18T00:05:57;15.10;99.90
35129;DHT22;21301;43.626;10.580;2022-11-18T00:08:24;15.20;99.90
35129;DHT22;21301;43.626;10.580;2022-11-18T00:10:50;15.20;99.90
35129;DHT22;21301;43.626;10.580;2022-11-18T00:13:17;15.20;99.90
35129;DHT22;21301;43.626;10.580;2022-11-18T00:16:11;15.30;99.90
35129;DHT22;21301;43.626;10.580;2022-11-18T00:18:38;15.30;99.90
35129;DHT22;21301;43.626;10.580;2022-11-18T00:21:06;15.30;99.90
35129;DHT22;21301;43.626;10.580;2022-11-18T00:23:32;15.20;99.90
35129;DHT22;21301;43.626;10.580;2022-11-18T00:26:10;15.20;99.90
35129;DHT22;21301;43.626;10.580;2022-11-18T00:28:37;15.20;99.90
35129;DHT22;21301;43.626;10.580;2022-11-18T00:31:12;15.10;99.90
35129;DHT22;21301;43.626;10.580;2022-11-18T00:33:38;15.00;99.90
35129;DHT22;21301;43.626;10.580;2022-11-18T00:36:06;14.90;99.90
35129;DHT22;21301;43.626;10.580;2022-11-18T00:38:32;14.90;99.90
35129;DHT22;21301;43.626;10.580;2022-11-18T00:41:03;14.80;99.90
35129;DHT22;21301;43.626;10.580;2022-11-18T00:43:30;14.90;99.90
35129;DHT22;21301;43.626;10.580;2022-11-18T00:45:55;14.90;99.90
35129;DHT22;21301;43.626;10.580;2022-11-18T00:48:21;14.90;99.90
35129;DHT22;21301;43.626;10.580;2022-11-18T00:50:52;15.10;99.90
35129;DHT22;21301;43.626;10.580;2022-11-18T00:53:19;15.10;99.90
35129;DHT22;21301;43.626;10.580;2022-11-18T00:55:45;15.10;99.90
35129;DHT22;21301;43.626;10.580;2022-11-18T00:58:11;15.10;99.90
35129;DHT22;21301;43.626;10.580;2022-11-18T01:00:43;15.10;99.90
35129;DHT22;21301;43.626;10.580;2022-11-18T01:03:10;15.10;99.90
35129;DHT22;21301;43.626;10.580;2022-11-18T01:05:36;15.00;99.90
35129;DHT22;21301;43.626;10.580;2022-11-18T01:08:03;14.90;99.90
35129;DHT22;21301;43.626;10.580;2022-11-18T01:10:29;14.90;99.90
35129;DHT22;21301;43.626;10.580;2022-11-18T01:12:55;14.80;99.90
35129;DHT22;21301;43.626;10.580;2022-11-18T01:15:41;14.70;99.90
35129;DHT22;21301;43.626;10.580;2022-11-18T01:18:07;14.70;99.90
35129;DHT22;21301;43.626;10.580;2022-11-18T01:20:34;14.70;99.90
35129;DHT22;21301;43.626;10.580;2022-11-18T01:23:00;14.70;99.90
35129;DHT22;21301;43.626;10.580;2022-11-18T01:25:27;14.80;99.90
35129;DHT22;21301;43.626;10.580;2022-11-18T01:27:53;14.80;99.90
35129;DHT22;21301;43.626;10.580;2022-11-18T01:30:19;14.80;99.90
35129;DHT22;21301;43.626;10.580;2022-11-18T01:32:45;14.90;99.90
35129;DHT22;21301;43.626;10.580;2022-11-18T01:35:11;14.90;99.90
35129;DHT22;21301;43.626;10.580;2022-11-18T01:37:37;15.00;99.90
35129;DHT22;21301;43.626;10.580;2022-11-18T01:40:05;15.00;99.90
35129;DHT22;21301;43.626;10.580;2022-11-18T01:42:31;15.00;99.90
35129;DHT22;21301;43.626;10.580;2022-11-18T01:45:14;15.00;99.90
35129;DHT22;21301;43.626;10.580;2022-11-18T01:48:01;15.00;99.90
35129;DHT22;21301;43.626;10.580;2022-11-18T01:50:29;14.90;99.90
35129;DHT22;21301;43.626;10.580;2022-11-18T01:52:58;14.80;99.90
35129;DHT22;21301;43.626;10.580;2022-11-18T01:55:29;14.80;99.90
35129;DHT22;21301;43.626;10.580;2022-11-18T01:58:02;14.90;99.90
35129;DHT22;21301;43.626;10.580;2022-11-18T02:00:28;14.70;99.90
35129;DHT22;21301;43.626;10.580;2022-11-18T02:02:55;14.70;99.90
35129;DHT22;21301;43.626;10.580;2022-11-18T02:05:21;14.60;99.90
35129;DHT22;21301;43.626;10.580;2022-11-18T02:07:48;14.60;99.90
35129;DHT22;21301;43.626;10.580;2022-11-18T02:10:20;14.70;99.90
35129;DHT22;21301;43.626;10.580;2022-11-18T02:12:47;15.20;99.90
35129;DHT22;21301;43.626;10.580;2022-11-18T02:15:12;15.70;99.90
35129;DHT22;21301;43.626;10.580;2022-11-18T02:17:56;15.90;99.90
35129;DHT22;21301;43.626;10.580;2022-11-18T02:20:31;16.00;99.90
35129;DHT22;21301;43.626;10.580;2022-11-18T02:23:42;16.00;99.90
35129;DHT22;21301;43.626;10.580;2022-11-18T02:29:37;16.10;99.90
35129;DHT22;21301;43.626;10.580;2022-11-18T02:32:13;16.00;99.90
35129;DHT22;21301;43.626;10.580;2022-11-18T02:37:31;16.10;99.90
35129;DHT22;21301;43.626;10.580;2022-11-18T02:40:02;16.20;99.90
35129;DHT22;21301;43.626;10.580;2022-11-18T02:42:32;16.20;99.90
35129;DHT22;21301;43.626;10.580;2022-11-18T02:45:04;16.30;99.90
35129;DHT22;21301;43.626;10.580;2022-11-18T02:47:31;16.30;99.90
35129;DHT22;21301;43.626;10.580;2022-11-18T02:50:02;16.30;99.90
35129;DHT22;21301;43.626;10.580;2022-11-18T02:52:31;16.40;99.90
35129;DHT22;21301;43.626;10.580;2022-11-18T02:54:59;16.40;99.90
35129;DHT22;21301;43.626;10.580;2022-11-18T02:57:27;16.40;99.90
35129;DHT22;21301;43.626;10.580;2022-11-18T02:59:55;16.40;99.90
35129;DHT22;21301;43.626;10.580;2022-11-18T03:02:21;16.40;99.90
35129;DHT22;21301;43.626;10.580;2022-11-18T03:04:48;16.40;99.90
35129;DHT22;21301;43.626;10.580;2022-11-18T03:09:50;16.40;99.90
35129;DHT22;21301;43.626;10.580;2022-11-18T03:22:32;15.60;99.90
35129;DHT22;21301;43.626;10.580;2022-11-18T03:25:19;15.70;99.90
35129;DHT22;21301;43.626;10.580;2022-11-18T03:30:19;15.60;99.90
35129;DHT22;21301;43.626;10.580;2022-11-18T03:32:55;15.60;99.90
35129;DHT22;21301;43.626;10.580;2022-11-18T03:35:24;15.70;99.90
35129;DHT22;21301;43.626;10.580;2022-11-18T03:37:56;15.70;99.90
35129;DHT22;21301;43.626;10.580;2022-11-18T03:40:27;15.70;99.90
35129;DHT22;21301;43.626;10.580;2022-11-18T03:43:02;15.80;99.90
35129;DHT22;21301;43.626;10.580;2022-11-18T03:48:18;15.70;99.90
35129;DHT22;21301;43.626;10.580;2022-11-18T03:51:00;15.70;99.90
35129;DHT22;21301;43.626;10.580;2022-11-18T03:53:29;15.50;99.90
35129;DHT22;21301;43.626;10.580;2022-11-18T03:56:02;15.50;99.90
35129;DHT22;21301;43.626;10.580;2022-11-18T03:58:39;15.50;99.90
35129;DHT22;21301;43.626;10.580;2022-11-18T04:01:16;15.50;99.90
35129;DHT22;21301;43.626;10.580;2022-11-18T04:03:42;15.40;99.90
35129;DHT22;21301;43.626;10.580;2022-11-18T04:06:24;15.40;99.90
35129;DHT22;21301;43.626;10.580;2022-11-18T04:08:57;15.30;99.90
35129;DHT22;21301;43.626;10.580;2022-11-18T04:11:27;15.30;99.90
35129;DHT22;21301;43.626;10.580;2022-11-18T04:14:14;15.10;99.90
35129;DHT22;21301;43.626;10.580;2022-11-18T04:16:43;15.00;99.90
35129;DHT22;21301;43.626;10.580;2022-11-18T04:19:09;15.00;99.90
35129;DHT22;21301;43.626;10.580;2022-11-18T04:21:35;14.90;99.90
35129;DHT22;21301;43.626;10.580;2022-11-18T04:24:01;14.80;99.90
35129;DHT22;21301;43.626;10.580;2022-11-18T04:26:27;14.80;99.90
35129;DHT22;21301;43.626;10.580;2022-11-18T04:28:53;14.80;99.90
35129;DHT22;21301;43.626;10.580;2022-11-18T04:31:19;14.90;99.90
35129;DHT22;21301;43.626;10.580;2022-11-18T04:33:45;15.00;99.90
35129;DHT22;21301;43.626;10.580;2022-11-18T04:36:10;15.00;99.90
35129;DHT22;21301;43.626;10.580;2022-11-18T04:38:36;15.10;99.90
35129;DHT22;21301;43.626;10.580;2022-11-18T04:41:02;15.10;99.90
35129;DHT22;21301;43.626;10.580;2022-11-18T04:43:27;15.10;99.90
35129;DHT22;21301;43.626;10.580;2022-11-18T04:45:53;15.00;99.90
35129;DHT22;21301;43.626;10.580;2022-11-18T04:48:19;15.00;99.90
35129;DHT22;21301;43.626;10.580;2022-11-18T04:50:45;15.00;99.90
35129;DHT22;21301;43.626;10.580;2022-11-18T04:53:10;15.00;99.90
35129;DHT22;21301;43.626;10.580;2022-11-18T04:55:36;15.10;99.90
35129;DHT22;21301;43.626;10.580;2022-11-18T04:58:02;15.30;99.90
35129;DHT22;21301;43.626;10.580;2022-11-18T05:00:28;15.40;99.90
35129;DHT22;21301;43.626;10.580;2022-11-18T05:02:54;15.40;99.90
35129;DHT22;21301;43.626;10.580;2022-11-18T05:05:19;15.40;99.90
35129;DHT22;21301;43.626;10.580;2022-11-18T05:07:45;15.50;99.90
35129;DHT22;21301;43.626;10.580;2022-11-18T05:10:11;15.50;99.90
35129;DHT22;21301;43.626;10.580;2022-11-18T05:12:37;15.40;99.90
35129;DHT22;21301;43.626;10.580;2022-11-18T05:15:19;15.50;99.90
35129;DHT22;21301;43.626;10.580;2022-11-18T05:17:46;15.40;99.90
35129;DHT22;21301;43.626;10.580;2022-11-18T05:20:12;15.50;99.90
35129;DHT22;21301;43.626;10.580;2022-11-18T05:22:39;15.40;99.90
35129;DHT22;21301;43.626;10.580;2022-11-18T05:25:05;15.40;99.90
35129;DHT22;21301;43.626;10.580;2022-11-18T05:27:31;15.40;99.90
35129;DHT22;21301;43.626;10.580;2022-11-18T05:29:57;15.40;99.90
35129;DHT22;21301;43.626;10.580;2022-11-18T05:32:23;15.40;99.90
35129;DHT22;21301;43.626;10.580;2022-11-18T05:34:49;15.40;99.90
35129;DHT22;21301;43.626;10.580;2022-11-18T05:37:15;15.40;99.90
35129;DHT22;21301;43.626;10.580;2022-11-18T05:39:40;15.40;99.90
35129;DHT22;21301;43.626;10.580;2022-11-18T05:42:07;15.40;99.90
35129;DHT22;21301;43.626;10.580;2022-11-18T05:44:51;15.20;99.90
35129;DHT22;21301;43.626;10.580;2022-11-18T05:47:17;15.20;99.90
35129;DHT22;21301;43.626;10.580;2022-11-18T05:49:43;15.20;99.90
35129;DHT22;21301;43.626;10.580;2022-11-18T05:52:09;15.20;99.90
35129;DHT22;21301;43.626;10.580;2022-11-18T05:54:38;15.20;99.90
35129;DHT22;21301;43.626;10.580;2022-11-18T05:57:06;15.20;99.90
35129;DHT22;21301;43.626;10.580;2022-11-18T05:59:32;15.20;99.90
35129;DHT22;21301;43.626;10.580;2022-11-18T06:02:04;15.20;99.90
35129;DHT22;21301;43.626;10.580;2022-11-18T06:04:56;15.10;99.90
35129;DHT22;21301;43.626;10.580;2022-11-18T06:07:28;15.30;99.90
35129;DHT22;21301;43.626;10.580;2022-11-18T06:09:58;15.50;99.90
35129;DHT22;21301;43.626;10.580;2022-11-18T06:12:27;15.70;99.90
35129;DHT22;21301;43.626;10.580;2022-11-18T06:15:06;15.80;99.90
35129;DHT22;21301;43.626;10.580;2022-11-18T06:17:42;15.70;99.90
35129;DHT22;21301;43.626;10.580;2022-11-18T06:20:09;15.80;99.90
35129;DHT22;21301;43.626;10.580;2022-11-18T06:22:35;15.70;99.90
35129;DHT22;21301;43.626;10.580;2022-11-18T06:25:02;15.70;99.90
35129;DHT22;21301;43.626;10.580;2022-11-18T06:27:29;15.60;99.90
35129;DHT22;21301;43.626;10.580;2022-11-18T06:29:55;15.60;99.90
35129;DHT22;21301;43.626;10.580;2022-11-18T06:32:21;15.60;99.90
35129;DHT22;21301;43.626;10.580;2022-11-18T06:34:47;15.60;99.90
35129;DHT22;21301;43.626;10.580;2022-11-18T06:37:17;15.50;99.90
35129;DHT22;21301;43.626;10.580;2022-11-18T06:39:45;15.60;99.90
35129;DHT22;21301;43.626;10.580;2022-11-18T06:42:11;15.50;99.90
35129;DHT22;21301;43.626;10.580;2022-11-18T06:44:57;15.40;99.90
35129;DHT22;21301;43.626;10.580;2022-11-18T06:47:22;15.40;99.90
35129;DHT22;21301;43.626;10.580;2022-11-18T06:49:48;15.40;99.90
35129;DHT22;21301;43.626;10.580;2022-11-18T06:52:14;15.40;99.90
35129;DHT22;21301;43.626;10.580;2022-11-18T06:54:40;15.40;99.90
35129;DHT22;21301;43.626;10.580;2022-11-18T06:57:05;15.40;99.90
35129;DHT22;21301;43.626;10.580;2022-11-18T06:59:31;15.40;99.90
35129;DHT22;21301;43.626;10.580;2022-11-18T07:01:57;15.40;99.90
35129;DHT22;21301;43.626;10.580;2022-11-18T07:04:23;15.40;99.90
35129;DHT22;21301;43.626;10.580;2022-11-18T07:06:48;15.50;99.90
35129;DHT22;21301;43.626;10.580;2022-11-18T07:09:14;15.50;99.90
35129;DHT22;21301;43.626;10.580;2022-11-18T07:11:41;15.60;99.90
35129;DHT22;21301;43.626;10.580;2022-11-18T07:14:08;16.00;99.90
35129;DHT22;21301;43.626;10.580;2022-11-18T07:16:34;17.10;99.90
35129;DHT22;21301;43.626;10.580;2022-11-18T07:19:06;18.80;99.90
35129;DHT22;21301;43.626;10.580;2022-11-18T07:21:32;19.30;99.90
35129;DHT22;21301;43.626;10.580;2022-11-18T07:23:57;18.90;99.90
35129;DHT22;21301;43.626;10.580;2022-11-18T07:26:24;17.70;99.90
35129;DHT22;21301;43.626;10.580;2022-11-18T07:28:49;17.30;99.90
35129;DHT22;21301;43.626;10.580;2022-11-18T07:31:19;17.10;99.90
35129;DHT22;21301;43.626;10.580;2022-11-18T07:33:45;17.20;99.90
35129;DHT22;21301;43.626;10.580;2022-11-18T07:36:17;19.10;99.90
35129;DHT22;21301;43.626;10.580;2022-11-18T07:38:44;20.80;99.90
35129;DHT22;21301;43.626;10.580;2022-11-18T07:41:11;22.10;99.90
35129;DHT22;21301;43.626;10.580;2022-11-18T07:43:38;21.00;99.90
35129;DHT22;21301;43.626;10.580;2022-11-18T07:48:46;21.10;99.90
35129;DHT22;21301;43.626;10.580;2022-11-18T07:51:14;20.70;99.90
35129;DHT22;21301;43.626;10.580;2022-11-18T07:53:40;21.10;99.90
35129;DHT22;21301;43.626;10.580;2022-11-18T07:56:07;21.00;99.90
35129;DHT22;21301;43.626;10.580;2022-11-18T07:58:34;21.60;99.90
35129;DHT22;21301;43.626;10.580;2022-11-18T08:03:36;19.70;99.90
35129;DHT22;21301;43.626;10.580;2022-11-18T08:06:04;19.10;99.90
35129;DHT22;21301;43.626;10.580;2022-11-18T08:08:30;19.00;99.90
35129;DHT22;21301;43.626;10.580;2022-11-18T08:10:58;18.80;99.90
35129;DHT22;21301;43.626;10.580;2022-11-18T08:13:24;18.70;99.90
35129;DHT22;21301;43.626;10.580;2022-11-18T08:15:51;18.60;99.90
35129;DHT22;21301;43.626;10.580;2022-11-18T08:18:17;18.50;99.90
35129;DHT22;21301;43.626;10.580;2022-11-18T08:20:43;18.50;99.90
35129;DHT22;21301;43.626;10.580;2022-11-18T08:23:10;18.60;99.90
35129;DHT22;21301;43.626;10.580;2022-11-18T08:25:38;18.60;99.90
35129;DHT22;21301;43.626;10.580;2022-11-18T08:28:04;18.90;99.90
35129;DHT22;21301;43.626;10.580;2022-11-18T08:30:32;18.70;99.90
35129;DHT22;21301;43.626;10.580;2022-11-18T08:32:58;18.80;99.90
35129;DHT22;21301;43.626;10.580;2022-11-18T08:35:25;19.00;99.90
35129;DHT22;21301;43.626;10.580;2022-11-18T08:37:51;18.60;99.90
35129;DHT22;21301;43.626;10.580;2022-11-18T08:40:17;18.70;99.90
35129;DHT22;21301;43.626;10.580;2022-11-18T08:42:42;18.40;99.90
35129;DHT22;21301;43.626;10.580;2022-11-18T08:45:08;18.40;99.90
35129;DHT22;21301;43.626;10.580;2022-11-18T08:47:35;18.30;99.90
35129;DHT22;21301;43.626;10.580;2022-11-18T08:50:05;18.10;99.90
35129;DHT22;21301;43.626;10.580;2022-11-18T08:52:31;17.90;99.90
35129;DHT22;21301;43.626;10.580;2022-11-18T08:54:57;17.80;99.90
35129;DHT22;21301;43.626;10.580;2022-11-18T08:57:22;18.30;99.90
35129;DHT22;21301;43.626;10.580;2022-11-18T08:59:48;18.70;99.90
35129;DHT22;21301;43.626;10.580;2022-11-18T09:02:16;19.00;99.90
35129;DHT22;21301;43.626;10.580;2022-11-18T09:04:42;19.30;99.90
35129;DHT22;21301;43.626;10.580;2022-11-18T09:07:08;19.30;99.90
35129;DHT22;21301;43.626;10.580;2022-11-18T09:09:34;19.20;99.90
35129;DHT22;21301;43.626;10.580;2022-11-18T09:12:00;19.10;99.90
35129;DHT22;21301;43.626;10.580;2022-11-18T09:14:25;19.30;99.90
35129;DHT22;21301;43.626;10.580;2022-11-18T09:16:51;19.10;99.90
35129;DHT22;21301;43.626;10.580;2022-11-18T09:19:17;19.10;99.90
35129;DHT22;21301;43.626;10.580;2022-11-18T09:21:43;19.20;99.90
35129;DHT22;21301;43.626;10.580;2022-11-18T09:24:08;19.20;99.90
35129;DHT22;21301;43.626;10.580;2022-11-18T09:26:36;19.30;99.90
35129;DHT22;21301;43.626;10.580;2022-11-18T09:29:02;19.50;99.90
35129;DHT22;21301;43.626;10.580;2022-11-18T09:31:28;19.40;99.90
35129;DHT22;21301;43.626;10.580;2022-11-18T09:33:54;19.30;99.90
35129;DHT22;21301;43.626;10.580;2022-11-18T09:36:24;19.50;99.90
35129;DHT22;21301;43.626;10.580;2022-11-18T09:38:50;19.50;99.90
35129;DHT22;21301;43.626;10.580;2022-11-18T09:41:45;19.50;99.90
35129;DHT22;21301;43.626;10.580;2022-11-18T09:44:49;19.70;99.90
35129;DHT22;21301;43.626;10.580;2022-11-18T09:47:27;19.30;99.90
35129;DHT22;21301;43.626;10.580;2022-11-18T09:50:06;19.50;99.90
35129;DHT22;21301;43.626;10.580;2022-11-18T09:55:18;19.90;99.90
35129;DHT22;21301;43.626;10.580;2022-11-18T09:57:49;19.60;99.90
35129;DHT22;21301;43.626;10.580;2022-11-18T10:00:18;19.30;99.90
35129;DHT22;21301;43.626;10.580;2022-11-18T10:03:00;19.00;99.90
35129;DHT22;21301;43.626;10.580;2022-11-18T10:05:35;19.00;99.90
35129;DHT22;21301;43.626;10.580;2022-11-18T10:08:38;18.70;99.90
35129;DHT22;21301;43.626;10.580;2022-11-18T10:11:20;18.70;99.90
35129;DHT22;21301;43.626;10.580;2022-11-18T10:13:59;19.00;99.90
35129;DHT22;21301;43.626;10.580;2022-11-18T10:19:59;18.60;99.90
35129;DHT22;21301;43.626;10.580;2022-11-18T10:22:33;18.50;99.90
35129;DHT22;21301;43.626;10.580;2022-11-18T10:25:02;19.00;99.90
35129;DHT22;21301;43.626;10.580;2022-11-18T10:27:41;19.20;99.90
35129;DHT22;21301;43.626;10.580;2022-11-18T10:30:25;19.00;99.90
35129;DHT22;21301;43.626;10.580;2022-11-18T10:32:57;18.60;99.90
35129;DHT22;21301;43.626;10.580;2022-11-18T10:35:35;18.30;99.90
35129;DHT22;21301;43.626;10.580;2022-11-18T10:38:16;18.10;99.90
35129;DHT22;21301;43.626;10.580;2022-11-18T10:46:16;18.10;99.90
35129;DHT22;21301;43.626;10.580;2022-11-18T10:48:42;18.40;99.90
35129;DHT22;21301;43.626;10.580;2022-11-18T10:51:24;18.70;99.90
35129;DHT22;21301;43.626;10.580;2022-11-18T10:53:49;18.60;99.90
35129;DHT22;21301;43.626;10.580;2022-11-18T10:56:16;18.60;99.90
35129;DHT22;21301;43.626;10.580;2022-11-18T10:58:48;18.30;99.90
35129;DHT22;21301;43.626;10.580;2022-11-18T11:01:19;18.20;99.90
35129;DHT22;21301;43.626;10.580;2022-11-18T11:12:01;18.70;99.90
35129;DHT22;21301;43.626;10.580;2022-11-18T11:14:31;18.70;99.90
35129;DHT22;21301;43.626;10.580;2022-11-18T11:17:28;18.50;99.90
35129;DHT22;21301;43.626;10.580;2022-11-18T11:20:09;18.60;99.90
35129;DHT22;21301;43.626;10.580;2022-11-18T11:22:37;18.90;99.90
35129;DHT22;21301;43.626;10.580;2022-11-18T11:25:15;19.30;99.90
35129;DHT22;21301;43.626;10.580;2022-11-18T11:44:05;20.10;99.90
35129;DHT22;21301;43.626;10.580;2022-11-18T11:50:01;19.90;99.90
35129;DHT22;21301;43.626;10.580;2022-11-18T11:57:51;19.30;99.90
35129;DHT22;21301;43.626;10.580;2022-11-18T12:00:19;19.10;99.90
35129;DHT22;21301;43.626;10.580;2022-11-18T12:03:06;19.10;99.90
35129;DHT22;21301;43.626;10.580;2022-11-18T12:05:38;18.80;99.90
35129;DHT22;21301;43.626;10.580;2022-11-18T12:08:22;18.80;99.90
35129;DHT22;21301;43.626;10.580;2022-11-18T12:10:56;18.70;99.90
35129;DHT22;21301;43.626;10.580;2022-11-18T12:19:15;19.30;99.90
35129;DHT22;21301;43.626;10.580;2022-11-18T12:26:49;19.50;99.90
35129;DHT22;21301;43.626;10.580;2022-11-18T12:29:28;19.50;99.90
35129;DHT22;21301;43.626;10.580;2022-11-18T12:32:00;19.20;99.90
35129;DHT22;21301;43.626;10.580;2022-11-18T12:34:28;18.90;99.90
35129;DHT22;21301;43.626;10.580;2022-11-18T12:36:55;18.70;99.90
35129;DHT22;21301;43.626;10.580;2022-11-18T12:44:41;18.60;99.90
35129;DHT22;21301;43.626;10.580;2022-11-18T12:47:09;18.70;99.90
35129;DHT22;21301;43.626;10.580;2022-11-18T12:52:03;19.20;99.90
35129;DHT22;21301;43.626;10.580;2022-11-18T12:54:38;19.00;99.90
35129;DHT22;21301;43.626;10.580;2022-11-18T12:57:17;18.80;99.90
35129;DHT22;21301;43.626;10.580;2022-11-18T12:59:43;18.80;99.90
35129;DHT22;21301;43.626;10.580;2022-11-18T13:04:35;18.90;99.90
35129;DHT22;21301;43.626;10.580;2022-11-18T13:07:03;18.90;99.90
35129;DHT22;21301;43.626;10.580;2022-11-18T13:09:32;18.80;99.90
35129;DHT22;21301;43.626;10.580;2022-11-18T13:12:06;18.70;99.90
35129;DHT22;21301;43.626;10.580;2022-11-18T13:14:42;18.60;99.90
35129;DHT22;21301;43.626;10.580;2022-11-18T13:17:38;18.70;99.90
35129;DHT22;21301;43.626;10.580;2022-11-18T13:20:30;18.90;99.90
35129;DHT22;21301;43.626;10.580;2022-11-18T13:23:00;19.00;99.90
35129;DHT22;21301;43.626;10.580;2022-11-18T13:25:45;18.90;99.90
35129;DHT22;21301;43.626;10.580;2022-11-18T13:33:49;19.10;99.90
35129;DHT22;21301;43.626;10.580;2022-11-18T13:36:23;19.30;99.90
35129;DHT22;21301;43.626;10.580;2022-11-18T13:39:01;19.20;99.90
35129;DHT22;21301;43.626;10.580;2022-11-18T13:41:29;19.20;99.90
35129;DHT22;21301;43.626;10.580;2022-11-18T13:44:24;19.10;99.90
35129;DHT22;21301;43.626;10.580;2022-11-18T13:46:55;19.10;99.90
35129;DHT22;21301;43.626;10.580;2022-11-18T13:49:37;18.90;99.90
35129;DHT22;21301;43.626;10.580;2022-11-18T13:52:10;18.90;99.90
35129;DHT22;21301;43.626;10.580;2022-11-18T13:54:38;18.80;99.90
35129;DHT22;21301;43.626;10.580;2022-11-18T13:57:04;18.80;99.90
35129;DHT22;21301;43.626;10.580;2022-11-18T13:59:30;18.80;99.90
35129;DHT22;21301;43.626;10.580;2022-11-18T14:01:59;18.90;99.90
35129;DHT22;21301;43.626;10.580;2022-11-18T14:04:27;18.70;99.90
35129;DHT22;21301;43.626;10.580;2022-11-18T14:09:53;18.60;99.90
35129;DHT22;21301;43.626;10.580;2022-11-18T14:12:24;18.40;99.90
35129;DHT22;21301;43.626;10.580;2022-11-18T14:14:50;18.30;99.90
35129;DHT22;21301;43.626;10.580;2022-11-18T14:19:47;18.20;99.90
35129;DHT22;21301;43.626;10.580;2022-11-18T14:22:22;18.30;99.90
35129;DHT22;21301;43.626;10.580;2022-11-18T14:27:45;18.30;99.90
35129;DHT22;21301;43.626;10.580;2022-11-18T14:30:32;18.30;99.90
35129;DHT22;21301;43.626;10.580;2022-11-18T14:33:22;18.30;99.90
35129;DHT22;21301;43.626;10.580;2022-11-18T14:41:02;18.10;99.90
35129;DHT22;21301;43.626;10.580;2022-11-18T14:43:28;18.00;99.90
35129;DHT22;21301;43.626;10.580;2022-11-18T14:46:01;18.00;99.90
35129;DHT22;21301;43.626;10.580;2022-11-18T14:48:28;18.00;99.90
35129;DHT22;21301;43.626;10.580;2022-11-18T14:50:55;18.00;99.90
35129;DHT22;21301;43.626;10.580;2022-11-18T14:53:20;18.00;99.90
35129;DHT22;21301;43.626;10.580;2022-11-18T14:55:51;17.90;99.90
35129;DHT22;21301;43.626;10.580;2022-11-18T14:58:18;17.80;99.90
35129;DHT22;21301;43.626;10.580;2022-11-18T15:00:46;17.80;99.90
35129;DHT22;21301;43.626;10.580;2022-11-18T15:03:12;17.80;99.90
35129;DHT22;21301;43.626;10.580;2022-11-18T15:05:38;17.70;99.90
35129;DHT22;21301;43.626;10.580;2022-11-18T15:08:05;17.70;99.90
35129;DHT22;21301;43.626;10.580;2022-11-18T15:10:31;17.70;99.90
35129;DHT22;21301;43.626;10.580;2022-11-18T15:12:57;17.60;99.90
35129;DHT22;21301;43.626;10.580;2022-11-18T15:15:23;17.60;99.90
35129;DHT22;21301;43.626;10.580;2022-11-18T15:17:49;17.40;99.90
35129;DHT22;21301;43.626;10.580;2022-11-18T15:20:17;17.20;99.90
35129;DHT22;21301;43.626;10.580;2022-11-18T15:22:44;17.20;99.90
35129;DHT22;21301;43.626;10.580;2022-11-18T15:25:09;17.20;99.90
35129;DHT22;21301;43.626;10.580;2022-11-18T15:27:36;17.10;99.90
35129;DHT22;21301;43.626;10.580;2022-11-18T15:30:03;17.00;99.90
35129;DHT22;21301;43.626;10.580;2022-11-18T15:32:29;17.00;99.90
35129;DHT22;21301;43.626;10.580;2022-11-18T15:34:54;16.90;99.90
35129;DHT22;21301;43.626;10.580;2022-11-18T15:37:20;16.80;99.90
35129;DHT22;21301;43.626;10.580;2022-11-18T15:39:46;16.70;99.90
35129;DHT22;21301;43.626;10.580;2022-11-18T15:42:18;16.60;99.90
35129;DHT22;21301;43.626;10.580;2022-11-18T15:44:44;16.60;99.90
35129;DHT22;21301;43.626;10.580;2022-11-18T15:47:10;16.50;99.90
35129;DHT22;21301;43.626;10.580;2022-11-18T15:49:36;16.40;99.90
35129;DHT22;21301;43.626;10.580;2022-11-18T15:52:02;16.20;99.90
35129;DHT22;21301;43.626;10.580;2022-11-18T15:54:28;16.00;99.90
35129;DHT22;21301;43.626;10.580;2022-11-18T15:56:54;15.90;99.90
35129;DHT22;21301;43.626;10.580;2022-11-18T15:59:20;15.80;99.90
35129;DHT22;21301;43.626;10.580;2022-11-18T16:01:47;15.70;99.90
35129;DHT22;21301;43.626;10.580;2022-11-18T16:04:17;15.70;99.90
35129;DHT22;21301;43.626;10.580;2022-11-18T16:06:43;15.60;99.90
35129;DHT22;21301;43.626;10.580;2022-11-18T16:09:10;15.60;99.90
35129;DHT22;21301;43.626;10.580;2022-11-18T16:11:36;15.50;99.90
35129;DHT22;21301;43.626;10.580;2022-11-18T16:14:22;15.50;99.90
35129;DHT22;21301;43.626;10.580;2022-11-18T16:17:07;15.50;99.90
35129;DHT22;21301;43.626;10.580;2022-11-18T16:19:33;15.60;99.90
35129;DHT22;21301;43.626;10.580;2022-11-18T16:21:59;15.50;99.90
35129;DHT22;21301;43.626;10.580;2022-11-18T16:24:27;15.60;99.90
35129;DHT22;21301;43.626;10.580;2022-11-18T16:26:53;15.60;99.90
35129;DHT22;21301;43.626;10.580;2022-11-18T16:29:19;15.60;99.90
35129;DHT22;21301;43.626;10.580;2022-11-18T16:31:47;15.50;99.90
35129;DHT22;21301;43.626;10.580;2022-11-18T16:34:25;15.60;99.90
35129;DHT22;21301;43.626;10.580;2022-11-18T16:36:56;15.60;99.90
35129;DHT22;21301;43.626;10.580;2022-11-18T16:39:26;15.50;99.90
35129;DHT22;21301;43.626;10.580;2022-11-18T16:41:57;15.50;99.90
35129;DHT22;21301;43.626;10.580;2022-11-18T16:44:23;15.40;99.90
35129;DHT22;21301;43.626;10.580;2022-11-18T16:46:54;15.40;99.90
35129;DHT22;21301;43.626;10.580;2022-11-18T16:49:22;15.20;99.90
35129;DHT22;21301;43.626;10.580;2022-11-18T16:51:50;15.10;99.90
35129;DHT22;21301;43.626;10.580;2022-11-18T16:56:44;15.00;99.90
35129;DHT22;21301;43.626;10.580;2022-11-18T16:59:12;14.90;99.90
35129;DHT22;21301;43.626;10.580;2022-11-18T17:01:38;14.90;99.90
35129;DHT22;21301;43.626;10.580;2022-11-18T17:04:04;15.00;99.90
35129;DHT22;21301;43.626;10.580;2022-11-18T17:06:30;15.00;99.90
35129;DHT22;21301;43.626;10.580;2022-11-18T17:09:00;15.00;99.90
35129;DHT22;21301;43.626;10.580;2022-11-18T17:11:26;15.10;99.90
35129;DHT22;21301;43.626;10.580;2022-11-18T17:13:52;15.10;99.90
35129;DHT22;21301;43.626;10.580;2022-11-18T17:16:19;15.00;99.90
35129;DHT22;21301;43.626;10.580;2022-11-18T17:18:46;15.00;99.90
35129;DHT22;21301;43.626;10.580;2022-11-18T17:21:14;14.90;99.90
35129;DHT22;21301;43.626;10.580;2022-11-18T17:23:44;14.90;99.90
35129;DHT22;21301;43.626;10.580;2022-11-18T17:26:12;14.90;99.90
35129;DHT22;21301;43.626;10.580;2022-11-18T17:28:39;15.00;99.90